Terminal Aerodrome Forecast
Issued by NWS Lake Charles, LA

Home | Current Version | Previous Version | Text Only | Print | Product List | Glossary On
Versions: 1 2 3 4 5 6 7 8 9 10 11 12 13 14 15 16 17 18 19 20 21 22
561
FTUS44 KLCH 211120
TAFLFT
TAF
KLFT 211120Z 2112/2212 21005KT 5SM BR VCSH BKN008 OVC015
      TEMPO 2112/2115 1SM BR OVC004
     FM211500 27005KT P6SM VCSH OVC025
     FM211800 30008KT P6SM SCT150
     FM220200 VRB04KT 5SM BR SCT008
      TEMPO 2208/2212 1SM BR=

USA.gov is the U.S. government's official web portal to all federal, state and local government web resources and services.